Terminal Aerodrome Forecast
Issued by NWS

Home | Current Version | Previous Version | Text Only | Print | Product List | Glossary On
Versions: 1 2 3 4 5 6 7 8 9 10 11 12 13 14 15 16 17 18 19
000
FTUS44 KEWX 301700
TAFSSF
TAF
KSSF 301728Z 3018/3118 05004KT P6SM SCT020
     FM301900 VRB04KT P6SM SCT035
     FM310600 03005KT P6SM BKN030
     FM311000 02008KT 4SM -SHRA BR BKN035
     FM311200 01012G22KT P6SM SCT035 BKN060=

USA.gov is the U.S. government's official web portal to all federal, state and local government web resources and services.